Time;durP1;ratioP1;P1;durP2;ratioP2;P2;SDS_P1;SDS_P2;PMS_P1;PMS_P2;Temp;Humidity;BMP_temperature;BMP_pressure;BME280_temperature;BME280_humidity;BME280_pressure;Samples;Min_cycle;Max_cycle;Signal;HPM_P1;HPM_P2
2020/12/11 00:02:22;;;;;;;19.63;14.63;;;0.40;99.90;;;;;;4954821;29;20659;-76
2020/12/11 00:04:47;;;;;;;18.63;14.43;;;0.40;99.90;;;;;;4948114;29;20292;-77
2020/12/11 00:07:13;;;;;;;19.13;13.87;;;0.40;99.90;;;;;;4951177;29;20439;-76
2020/12/11 00:09:39;;;;;;;18.67;13.93;;;0.40;99.90;;;;;;4954040;28;20282;-76
2020/12/11 00:12:05;;;;;;;22.67;14.70;;;0.30;99.90;;;;;;4954827;29;20282;-77
2020/12/11 00:14:30;;;;;;;24.43;15.47;;;0.40;99.90;;;;;;4933458;28;20216;-77
2020/12/11 00:16:56;;;;;;;22.47;15.30;;;0.40;99.90;;;;;;4948549;29;20183;-76
2020/12/11 00:19:22;;;;;;;21.30;12.27;;;0.40;99.90;;;;;;4953552;28;20219;-77
2020/12/11 00:21:49;;;;;;;24.87;14.90;;;0.40;99.90;;;;;;4953832;29;20212;-77
2020/12/11 00:24:15;;;;;;;23.08;16.88;;;0.40;99.90;;;;;;4953056;29;20203;-77
2020/12/11 00:26:41;;;;;;;22.17;14.73;;;0.40;99.90;;;;;;4953770;29;20667;-77
2020/12/11 00:29:06;;;;;;;24.17;15.82;;;0.40;99.90;;;;;;4953409;29;20275;-77
2020/12/11 00:31:32;;;;;;;21.73;16.07;;;0.40;99.90;;;;;;4952896;29;20200;-76
2020/12/11 00:33:59;;;;;;;22.73;15.53;;;0.40;99.90;;;;;;4952809;28;20782;-77
2020/12/11 00:36:25;;;;;;;22.48;15.38;;;0.40;99.90;;;;;;4952106;29;21017;-76
2020/12/11 00:38:52;;;;;;;23.55;13.60;;;0.40;99.90;;;;;;4953302;29;20180;-77
2020/12/11 00:41:17;;;;;;;23.08;14.52;;;0.40;99.90;;;;;;4952335;28;20212;-77
2020/12/11 00:43:43;;;;;;;23.63;14.63;;;0.40;99.90;;;;;;4953519;29;20179;-77
2020/12/11 00:46:09;;;;;;;19.40;14.90;;;0.40;99.90;;;;;;4949395;28;20231;-76
2020/12/11 00:48:35;;;;;;;22.97;15.77;;;0.50;99.90;;;;;;4944023;29;20510;-76
2020/12/11 00:51:00;;;;;;;17.83;13.23;;;0.50;99.90;;;;;;4952607;29;20592;-76
2020/12/11 00:53:26;;;;;;;19.07;13.57;;;0.50;99.90;;;;;;4952885;29;20454;-76
2020/12/11 00:55:52;;;;;;;18.43;12.73;;;0.50;99.90;;;;;;4951038;29;20306;-76
2020/12/11 00:58:18;;;;;;;19.58;13.70;;;0.50;99.90;;;;;;4942912;29;20608;-76
2020/12/11 01:00:44;;;;;;;20.63;16.10;;;0.50;99.90;;;;;;4935265;28;20318;-76
2020/12/11 01:03:10;;;;;;;18.67;14.37;;;0.50;99.90;;;;;;4953096;29;20695;-76
2020/12/11 01:05:36;;;;;;;20.58;13.65;;;0.50;99.90;;;;;;4952219;29;20207;-76
2020/12/11 01:08:05;;;;;;;18.47;12.57;;;0.50;99.90;;;;;;4941392;29;20635;-76
2020/12/11 01:10:31;;;;;;;20.08;13.32;;;0.60;99.90;;;;;;4954031;28;20220;-76
2020/12/11 01:12:57;;;;;;;20.85;13.75;;;0.60;99.90;;;;;;4952587;29;20175;-76
2020/12/11 01:15:23;;;;;;;15.93;12.43;;;0.60;99.90;;;;;;4951929;28;20203;-76
2020/12/11 01:17:49;;;;;;;19.50;13.23;;;0.60;99.90;;;;;;4952550;29;20184;-76
2020/12/11 01:20:15;;;;;;;19.25;13.02;;;0.70;99.90;;;;;;4951887;29;20285;-76
2020/12/11 01:22:41;;;;;;;19.90;12.63;;;0.60;99.90;;;;;;4952282;29;20202;-76
2020/12/11 01:25:07;;;;;;;17.10;12.10;;;0.60;99.90;;;;;;4951907;28;20207;-76
2020/12/11 01:27:33;;;;;;;17.15;13.40;;;0.60;99.90;;;;;;4923503;29;20172;-76
2020/12/11 01:29:58;;;;;;;20.70;13.50;;;0.60;99.90;;;;;;4928534;29;670345;-76
2020/12/11 01:32:24;;;;;;;19.10;13.37;;;0.60;99.90;;;;;;4952686;28;20191;-76
2020/12/11 01:34:50;;;;;;;19.80;13.83;;;0.60;99.90;;;;;;4952579;29;20307;-76
2020/12/11 01:37:15;;;;;;;20.13;13.63;;;0.70;99.90;;;;;;4951743;29;20192;-76
2020/12/11 01:39:41;;;;;;;20.10;12.83;;;0.60;99.90;;;;;;4952652;28;20220;-76
2020/12/11 01:42:13;;;;;;;20.13;14.43;;;0.60;99.90;;;;;;4936026;29;20218;-76
2020/12/11 01:44:53;;;;;;;18.80;12.60;;;0.70;99.90;;;;;;4949087;29;20670;-77
2020/12/11 01:47:19;;;;;;;17.77;11.80;;;0.70;99.90;;;;;;4952352;29;20211;-76
2020/12/11 01:49:46;;;;;;;16.25;12.18;;;0.70;99.90;;;;;;4952491;28;20208;-76
2020/12/11 01:52:14;;;;;;;20.00;13.73;;;0.70;99.90;;;;;;4952510;28;20682;-76
2020/12/11 01:54:40;;;;;;;19.10;14.48;;;0.70;99.90;;;;;;4952646;29;20311;-76
2020/12/11 01:57:07;;;;;;;23.33;14.07;;;0.60;99.90;;;;;;4951857;29;20746;-76
2020/12/11 01:59:39;;;;;;;17.83;13.15;;;0.70;99.90;;;;;;4952261;29;20641;-76
2020/12/11 02:02:05;;;;;;;18.55;13.00;;;0.70;99.90;;;;;;4952963;28;20255;-76
2020/12/11 02:04:35;;;;;;;21.92;13.82;;;0.60;99.90;;;;;;4951111;29;20232;-76
2020/12/11 02:07:01;;;;;;;18.17;13.02;;;0.70;99.90;;;;;;4947874;29;20207;-76
2020/12/11 02:09:30;;;;;;;16.30;12.00;;;0.70;99.90;;;;;;4952235;28;20774;-76
2020/12/11 02:11:56;;;;;;;19.05;13.07;;;0.60;99.90;;;;;;4952604;29;20192;-76
2020/12/11 02:14:22;;;;;;;20.10;13.67;;;0.70;99.90;;;;;;4934602;29;20259;-76
2020/12/11 02:16:47;;;;;;;20.53;13.67;;;0.60;99.90;;;;;;4950595;29;20176;-76
2020/12/11 02:19:14;;;;;;;20.40;13.23;;;0.60;99.90;;;;;;4951942;28;20171;-76
2020/12/11 02:21:40;;;;;;;19.00;14.32;;;0.60;99.90;;;;;;4952567;28;20195;-76
2020/12/11 02:24:05;;;;;;;20.93;15.30;;;0.50;99.90;;;;;;4949325;29;20172;-76
2020/12/11 02:26:31;;;;;;;19.73;14.87;;;0.50;99.90;;;;;;4931537;29;20519;-76
2020/12/11 02:28:57;;;;;;;19.93;14.07;;;0.50;99.90;;;;;;4946924;29;20234;-76
2020/12/11 02:31:23;;;;;;;24.27;14.55;;;0.50;99.90;;;;;;4952258;29;20307;-76
2020/12/11 02:33:48;;;;;;;18.30;13.50;;;0.50;99.90;;;;;;4952528;29;20246;-76
2020/12/11 02:36:19;;;;;;;18.43;14.43;;;0.50;99.90;;;;;;4947201;28;20211;-76
2020/12/11 02:38:44;;;;;;;19.00;14.38;;;0.40;99.90;;;;;;4952716;29;20256;-76
2020/12/11 02:41:10;;;;;;;21.87;15.03;;;0.50;99.90;;;;;;4951790;29;20211;-76
2020/12/11 02:43:38;;;;;;;18.87;13.80;;;0.50;99.90;;;;;;4953474;28;20251;-77
2020/12/11 02:46:05;;;;;;;25.30;13.98;;;0.40;99.90;;;;;;4954304;29;20208;-77
2020/12/11 02:48:32;;;;;;;21.20;14.32;;;0.40;99.90;;;;;;4939509;29;20287;-76
2020/12/11 02:50:58;;;;;;;19.38;13.82;;;0.40;99.90;;;;;;4955398;28;20290;-76
2020/12/11 02:53:25;;;;;;;20.83;14.50;;;0.40;99.90;;;;;;4955669;29;20172;-76
2020/12/11 02:55:51;;;;;;;21.52;14.73;;;0.40;99.90;;;;;;4953859;28;20212;-76
2020/12/11 02:58:17;;;;;;;22.13;14.80;;;0.40;99.90;;;;;;4953078;29;20183;-77
2020/12/11 03:00:43;;;;;;;21.38;14.77;;;0.40;99.90;;;;;;4937647;29;20220;-78
2020/12/11 03:03:09;;;;;;;20.23;15.10;;;0.40;99.90;;;;;;4957055;28;20167;-76
2020/12/11 03:05:35;;;;;;;21.77;15.52;;;0.50;99.90;;;;;;4963105;28;20579;-77
2020/12/11 03:08:01;;;;;;;23.97;16.17;;;0.50;99.90;;;;;;4955715;28;20184;-77
2020/12/11 03:10:26;;;;;;;22.47;16.60;;;0.50;99.90;;;;;;4937654;28;20216;-76
2020/12/11 03:12:52;;;;;;;27.20;16.73;;;0.50;99.90;;;;;;4938656;29;20173;-76
2020/12/11 03:15:18;;;;;;;25.17;16.97;;;0.50;99.90;;;;;;4941838;29;20216;-76
2020/12/11 03:17:44;;;;;;;20.53;13.93;;;0.50;99.90;;;;;;4947349;29;20993;-76
2020/12/11 03:20:09;;;;;;;19.80;14.67;;;0.60;99.90;;;;;;4954836;29;20998;-76
2020/12/11 03:22:35;;;;;;;22.57;15.90;;;0.70;99.90;;;;;;4955597;28;20263;-76
2020/12/11 03:25:04;;;;;;;19.90;13.73;;;0.60;99.90;;;;;;4954652;28;20313;-76
2020/12/11 03:27:30;;;;;;;18.85;13.23;;;0.60;99.90;;;;;;4952752;29;20180;-76
2020/12/11 03:29:56;;;;;;;23.10;15.00;;;0.60;99.90;;;;;;4955061;28;20317;-76
2020/12/11 03:32:22;;;;;;;21.70;16.10;;;0.50;99.90;;;;;;4955162;28;20709;-76
2020/12/11 03:34:47;;;;;;;20.20;15.63;;;0.60;99.90;;;;;;4951880;28;20979;-76
2020/12/11 03:37:15;;;;;;;20.80;14.60;;;0.60;99.90;;;;;;4948458;29;20179;-76
2020/12/11 03:39:42;;;;;;;19.77;13.90;;;0.60;99.90;;;;;;4954678;29;20224;-76
2020/12/11 03:42:08;;;;;;;20.42;13.35;;;0.60;99.90;;;;;;4955383;28;20551;-76
2020/12/11 03:44:34;;;;;;;19.80;13.67;;;0.50;99.90;;;;;;4954725;28;20223;-76
2020/12/11 03:47:00;;;;;;;21.37;13.87;;;0.50;99.90;;;;;;4944985;29;20523;-76
2020/12/11 03:49:25;;;;;;;20.50;13.53;;;0.50;99.90;;;;;;4952962;28;20491;-76
2020/12/11 03:51:54;;;;;;;19.60;14.97;;;0.50;99.90;;;;;;4955341;29;20196;-76
2020/12/11 03:54:19;;;;;;;21.27;14.23;;;0.50;99.90;;;;;;4953888;28;20222;-76
2020/12/11 03:56:48;;;;;;;15.53;11.30;;;0.50;99.90;;;;;;4951423;29;20263;-75
2020/12/11 03:59:14;;;;;;;16.77;12.23;;;0.50;99.90;;;;;;4954310;29;20176;-76
2020/12/11 04:01:40;;;;;;;18.90;13.73;;;0.50;99.90;;;;;;4954772;28;20275;-76
2020/12/11 04:04:07;;;;;;;19.00;12.77;;;0.40;99.90;;;;;;4962288;28;20707;-76
2020/12/11 04:06:33;;;;;;;18.83;13.07;;;0.40;99.90;;;;;;4951136;28;20434;-76
2020/12/11 04:08:59;;;;;;;21.73;14.47;;;0.40;99.90;;;;;;4954317;29;20247;-76
2020/12/11 04:11:25;;;;;;;21.07;13.10;;;0.30;99.90;;;;;;4936941;29;20441;-77
2020/12/11 04:13:50;;;;;;;20.37;13.00;;;0.30;99.90;;;;;;4955024;29;20419;-77
2020/12/11 04:16:16;;;;;;;18.13;13.07;;;0.30;99.90;;;;;;4950856;28;20200;-77
2020/12/11 04:18:42;;;;;;;19.40;12.40;;;0.40;99.90;;;;;;4954699;29;20243;-76
2020/12/11 04:21:13;;;;;;;19.77;12.60;;;0.30;99.90;;;;;;4953823;28;20639;-76
2020/12/11 04:23:38;;;;;;;15.65;11.80;;;0.40;99.90;;;;;;4954705;29;20247;-76
2020/12/11 04:26:04;;;;;;;19.23;13.57;;;0.40;99.90;;;;;;4947580;29;20211;-77
2020/12/11 04:28:30;;;;;;;20.93;13.90;;;0.40;99.90;;;;;;4953602;29;20192;-76
2020/12/11 04:30:56;;;;;;;19.60;13.47;;;0.40;99.90;;;;;;4953540;29;20754;-76
2020/12/11 04:33:21;;;;;;;21.60;13.50;;;0.40;99.90;;;;;;4953747;29;20183;-76
2020/12/11 04:35:47;;;;;;;17.23;12.83;;;0.50;99.90;;;;;;4949739;28;20212;-76
2020/12/11 04:38:12;;;;;;;20.50;13.93;;;0.50;99.90;;;;;;4953899;29;20183;-78
2020/12/11 04:40:38;;;;;;;18.80;12.33;;;0.50;99.90;;;;;;4953417;28;20215;-76
2020/12/11 04:43:04;;;;;;;22.10;13.63;;;0.50;99.90;;;;;;4954182;29;20523;-76
2020/12/11 04:45:31;;;;;;;18.65;13.82;;;0.50;99.90;;;;;;4952676;29;20294;-76
2020/12/11 04:47:57;;;;;;;20.98;14.23;;;0.50;99.90;;;;;;4953675;29;20176;-77
2020/12/11 04:50:23;;;;;;;19.83;13.50;;;0.50;99.90;;;;;;4953662;28;20255;-76
2020/12/11 04:52:49;;;;;;;18.73;12.93;;;0.60;99.90;;;;;;4954163;29;20632;-76
2020/12/11 04:55:20;;;;;;;19.23;13.85;;;0.60;99.90;;;;;;4930239;29;20269;-76
2020/12/11 04:57:51;;;;;;;19.52;13.15;;;0.60;99.90;;;;;;4952552;29;20184;-76
2020/12/11 05:00:18;;;;;;;22.02;13.82;;;0.60;99.90;;;;;;4953195;28;20208;-76
2020/12/11 05:02:46;;;;;;;19.80;13.40;;;0.60;99.90;;;;;;4953812;29;20231;-77
2020/12/11 05:05:12;;;;;;;19.63;13.27;;;0.60;99.90;;;;;;4952780;29;20235;-77
2020/12/11 05:07:38;;;;;;;18.30;12.68;;;0.60;99.90;;;;;;4951463;28;20164;-76
2020/12/11 05:10:06;;;;;;;20.50;14.33;;;0.60;99.90;;;;;;4953411;28;20562;-76
2020/12/11 05:12:33;;;;;;;23.13;16.10;;;0.60;99.90;;;;;;4953893;29;20204;-76
2020/12/11 05:15:00;;;;;;;27.40;18.02;;;0.60;99.90;;;;;;4948291;29;20204;-76
2020/12/11 05:17:29;;;;;;;23.60;16.00;;;0.60;99.90;;;;;;4951324;29;20183;-76
2020/12/11 05:19:56;;;;;;;21.10;16.05;;;0.60;99.90;;;;;;4953406;28;20211;-76
2020/12/11 05:22:25;;;;;;;20.17;14.23;;;0.60;99.90;;;;;;4954927;28;20687;-76
2020/12/11 05:24:53;;;;;;;22.10;15.15;;;0.60;99.90;;;;;;4952369;28;20735;-76
2020/12/11 05:27:28;;;;;;;20.35;14.15;;;0.70;99.90;;;;;;4946279;29;20535;-76
2020/12/11 05:29:57;;;;;;;21.67;14.50;;;0.70;99.90;;;;;;4952754;29;20222;-76
2020/12/11 05:32:49;;;;;;;24.75;15.90;;;0.70;99.90;;;;;;4952917;29;20195;-76
2020/12/11 05:35:18;;;;;;;19.92;15.32;;;0.70;99.90;;;;;;4941160;29;20223;-76
2020/12/11 05:38:06;;;;;;;22.30;15.60;;;0.70;99.90;;;;;;4948686;29;20190;-76
2020/12/11 05:40:32;;;;;;;21.83;14.40;;;0.70;99.90;;;;;;4952496;28;20216;-76
2020/12/11 05:43:18;;;;;;;18.10;13.18;;;0.70;99.90;;;;;;4935845;29;20224;-76
2020/12/11 05:45:54;;;;;;;19.92;14.13;;;0.70;99.90;;;;;;4946158;29;20211;-76
2020/12/11 05:48:22;;;;;;;23.05;14.88;;;0.70;99.90;;;;;;4950957;29;20176;-76
2020/12/11 05:50:48;;;;;;;23.35;15.63;;;0.70;99.90;;;;;;4952582;29;20322;-75
2020/12/11 05:53:14;;;;;;;20.30;14.88;;;0.70;99.90;;;;;;4952959;29;20239;-76
2020/12/11 05:55:40;;;;;;;21.17;14.00;;;0.70;99.90;;;;;;4951909;28;20215;-76
2020/12/11 05:58:09;;;;;;;18.38;13.00;;;0.70;99.90;;;;;;4951088;29;20543;-76
2020/12/11 06:00:35;;;;;;;21.92;14.95;;;0.70;99.90;;;;;;4952271;28;20217;-76
2020/12/11 06:03:02;;;;;;;22.97;13.87;;;0.70;99.90;;;;;;4952975;29;20176;-76
2020/12/11 06:05:27;;;;;;;19.90;13.93;;;0.70;99.90;;;;;;4931027;29;20204;-76
2020/12/11 06:07:53;;;;;;;19.53;13.40;;;0.70;99.90;;;;;;4947427;29;20175;-76
2020/12/11 06:10:21;;;;;;;19.57;14.57;;;0.70;99.90;;;;;;4935428;29;20682;-76
2020/12/11 06:12:47;;;;;;;20.00;14.43;;;0.70;99.90;;;;;;4952504;29;20215;-76
2020/12/11 06:15:21;;;;;;;21.73;15.15;;;0.70;99.90;;;;;;4948544;29;20607;-76
2020/12/11 06:17:51;;;;;;;21.30;15.18;;;0.70;99.90;;;;;;4949880;28;20179;-76
2020/12/11 06:20:18;;;;;;;22.80;15.50;;;0.70;99.90;;;;;;4956393;28;20614;-76
2020/12/11 06:22:44;;;;;;;20.83;14.90;;;0.70;99.90;;;;;;4956317;29;20208;-77
2020/12/11 06:25:30;;;;;;;25.33;15.60;;;0.80;99.90;;;;;;4948915;28;20671;-76
2020/12/11 06:27:57;;;;;;;22.02;15.02;;;0.80;99.90;;;;;;4951200;29;20178;-76
2020/12/11 06:30:30;;;;;;;19.05;14.95;;;0.80;99.90;;;;;;4955778;29;20991;-77
2020/12/11 06:32:57;;;;;;;20.70;15.05;;;0.70;99.90;;;;;;4956555;29;20226;-76
2020/12/11 06:35:24;;;;;;;20.65;14.65;;;0.80;99.90;;;;;;4934586;29;20213;-76
2020/12/11 06:37:50;;;;;;;22.73;15.15;;;0.70;99.90;;;;;;4950343;29;20172;-76
2020/12/11 06:40:16;;;;;;;19.85;14.27;;;0.70;99.90;;;;;;4955988;29;20200;-76
2020/12/11 06:42:43;;;;;;;22.87;14.63;;;0.70;99.90;;;;;;4948906;29;20199;-77
2020/12/11 06:45:25;;;;;;;17.67;13.88;;;0.70;99.90;;;;;;4954963;29;20996;-76
2020/12/11 06:47:57;;;;;;;20.65;14.98;;;0.60;99.90;;;;;;4952713;29;20437;-76
2020/12/11 06:50:30;;;;;;;20.20;14.70;;;0.60;99.90;;;;;;4955400;28;20227;-76
2020/12/11 06:52:56;;;;;;;23.02;15.57;;;0.60;99.90;;;;;;4939080;29;20168;-76
2020/12/11 06:55:22;;;;;;;25.23;16.92;;;0.60;99.90;;;;;;4954698;28;20421;-77
2020/12/11 06:57:49;;;;;;;23.15;14.85;;;0.60;99.90;;;;;;4952643;29;20184;-76
2020/12/11 07:00:25;;;;;;;23.65;13.93;;;0.60;99.90;;;;;;4955451;29;20208;-76
2020/12/11 07:03:36;;;;;;;22.92;16.50;;;0.60;99.90;;;;;;4955657;29;20543;-76
2020/12/11 07:06:06;;;;;;;20.08;14.30;;;0.70;99.90;;;;;;4947861;28;20259;-76
2020/12/11 07:08:33;;;;;;;22.95;14.52;;;0.70;99.90;;;;;;4954074;29;20188;-77
2020/12/11 07:11:07;;;;;;;21.40;14.00;;;0.80;99.90;;;;;;4942125;28;20211;-76
2020/12/11 07:13:35;;;;;;;21.15;14.40;;;0.90;99.90;;;;;;4955729;29;20168;-76
2020/12/11 07:16:01;;;;;;;17.45;13.23;;;0.80;99.90;;;;;;4952363;29;20215;-76
2020/12/11 07:18:27;;;;;;;22.13;14.82;;;0.90;99.90;;;;;;4936822;29;20215;-76
2020/12/11 07:20:55;;;;;;;22.13;15.50;;;0.90;99.90;;;;;;4952944;28;20307;-76
2020/12/11 07:23:22;;;;;;;21.08;13.00;;;0.90;99.90;;;;;;4955523;29;20164;-76
2020/12/11 07:25:48;;;;;;;23.83;14.00;;;0.90;99.90;;;;;;4953699;29;20270;-77
2020/12/11 07:28:14;;;;;;;18.88;15.00;;;0.90;99.90;;;;;;4954659;29;20464;-76
2020/12/11 07:30:45;;;;;;;20.20;15.25;;;0.90;99.90;;;;;;4961878;28;20240;-76
2020/12/11 07:33:11;;;;;;;22.42;14.93;;;0.90;99.90;;;;;;4954900;29;20172;-76
2020/12/11 07:35:42;;;;;;;18.23;13.13;;;1.00;99.90;;;;;;4953692;29;20204;-76
2020/12/11 07:38:08;;;;;;;24.27;14.55;;;1.00;99.90;;;;;;4954287;29;20394;-76
2020/12/11 07:40:34;;;;;;;22.10;15.53;;;1.00;99.90;;;;;;4937546;28;20708;-76
2020/12/11 07:43:02;;;;;;;23.70;15.20;;;1.10;99.90;;;;;;4937610;29;20172;-76
2020/12/11 07:45:31;;;;;;;18.25;13.20;;;1.10;99.90;;;;;;4953500;29;20269;-76
2020/12/11 07:47:58;;;;;;;20.95;14.13;;;1.30;99.90;;;;;;4950885;29;20176;-76
2020/12/11 07:50:26;;;;;;;20.70;13.55;;;1.40;99.90;;;;;;4953872;28;20732;-76
2020/12/11 07:52:53;;;;;;;18.50;13.82;;;1.40;99.90;;;;;;4954806;29;20604;-76
2020/12/11 07:55:21;;;;;;;17.25;12.70;;;1.40;99.90;;;;;;4952937;29;20525;-76
2020/12/11 07:57:58;;;;;;;17.58;13.00;;;1.40;99.90;;;;;;4952872;29;20280;-76
2020/12/11 08:00:25;;;;;;;19.95;13.60;;;1.40;99.90;;;;;;4953855;28;20757;-76
2020/12/11 08:02:55;;;;;;;19.73;14.20;;;1.40;99.90;;;;;;4954424;29;20172;-76
2020/12/11 08:05:22;;;;;;;18.42;12.93;;;1.40;99.90;;;;;;4953472;28;20208;-76
2020/12/11 08:07:53;;;;;;;23.50;15.80;;;1.40;99.90;;;;;;4936104;29;20187;-77
2020/12/11 08:10:20;;;;;;;20.52;13.20;;;1.40;99.90;;;;;;4953972;28;20208;-76
2020/12/11 08:12:47;;;;;;;22.63;15.90;;;1.50;99.90;;;;;;4954611;29;20341;-76
2020/12/11 08:15:34;;;;;;;19.33;13.30;;;1.50;99.90;;;;;;4953119;28;20235;-77
2020/12/11 08:18:20;;;;;;;16.25;11.55;;;1.60;99.90;;;;;;4953576;29;20614;-76
2020/12/11 08:20:54;;;;;;;19.75;14.10;;;1.60;99.90;;;;;;4953962;28;20637;-76
2020/12/11 08:23:25;;;;;;;20.00;13.65;;;1.60;99.90;;;;;;4952688;29;20183;-76
2020/12/11 08:26:09;;;;;;;19.45;14.80;;;1.70;99.90;;;;;;4952077;28;20208;-76
2020/12/11 08:28:35;;;;;;;19.52;13.20;;;1.70;99.90;;;;;;4947966;29;20184;-77
2020/12/11 08:31:20;;;;;;;22.13;15.15;;;1.70;99.90;;;;;;4953928;28;20274;-77
2020/12/11 08:33:50;;;;;;;21.88;13.88;;;1.70;99.90;;;;;;4954213;29;20528;-76
2020/12/11 08:36:26;;;;;;;21.70;13.25;;;1.70;99.90;;;;;;4952714;29;20216;-77
2020/12/11 08:39:13;;;;;;;21.10;12.80;;;1.80;99.90;;;;;;4922733;29;20535;-77
2020/12/11 08:41:51;;;;;;;23.20;14.20;;;1.90;99.90;;;;;;4952907;28;20252;-77
2020/12/11 08:45:10;;;;;;;21.30;13.63;;;1.90;99.90;;;;;;4953647;28;20224;-77
2020/12/11 08:47:30;;;;;;;21.45;13.70;;;2.00;99.90;;;;;;4947961;29;20640;-78
2020/12/11 08:50:13;;;;;;;24.85;13.68;;;2.00;99.90;;;;;;4964993;28;20208;-77
2020/12/11 08:52:39;;;;;;;23.98;14.48;;;2.10;99.90;;;;;;4944544;29;20606;-77
2020/12/11 08:55:05;;;;;;;15.57;11.33;;;2.00;99.90;;;;;;4951567;28;20249;-76
2020/12/11 08:57:32;;;;;;;19.20;12.45;;;2.00;99.90;;;;;;4950009;29;20196;-77
2020/12/11 08:59:58;;;;;;;20.10;14.50;;;2.00;99.90;;;;;;4953223;28;20216;-77
2020/12/11 09:02:25;;;;;;;18.00;12.60;;;2.10;99.90;;;;;;4953578;28;20658;-77
2020/12/11 09:04:51;;;;;;;22.67;14.25;;;2.10;99.90;;;;;;4965836;28;20977;-76
2020/12/11 09:07:17;;;;;;;22.57;13.43;;;2.10;99.90;;;;;;4946427;29;20208;-77
2020/12/11 09:09:43;;;;;;;21.10;14.13;;;2.10;99.90;;;;;;4967469;28;20451;-77
2020/12/11 09:12:08;;;;;;;20.33;14.60;;;2.10;99.90;;;;;;4953420;28;20263;-77
2020/12/11 09:14:34;;;;;;;21.93;14.60;;;2.10;99.90;;;;;;4952748;28;20219;-79
2020/12/11 09:17:00;;;;;;;18.53;13.90;;;2.10;99.90;;;;;;4947693;29;20202;-78
2020/12/11 09:19:26;;;;;;;20.20;13.30;;;2.10;99.90;;;;;;4953113;28;20748;-78
2020/12/11 09:21:51;;;;;;;15.90;11.47;;;2.20;99.90;;;;;;4952997;28;20678;-78
2020/12/11 09:24:17;;;;;;;16.33;11.23;;;2.30;99.90;;;;;;4947611;29;20212;-78
2020/12/11 09:26:43;;;;;;;13.60;10.60;;;2.50;99.90;;;;;;4949429;28;20472;-78
2020/12/11 09:29:14;;;;;;;14.37;9.27;;;2.60;99.90;;;;;;4952555;28;20662;-77
2020/12/11 09:31:44;;;;;;;14.18;10.95;;;2.70;99.90;;;;;;4952926;28;20196;-77
2020/12/11 09:34:10;;;;;;;17.95;11.00;;;2.70;99.90;;;;;;4953202;28;20180;-77
2020/12/11 09:36:40;;;;;;;15.53;11.87;;;2.60;99.90;;;;;;4969713;28;20183;-77
2020/12/11 09:39:06;;;;;;;15.75;10.80;;;2.60;99.90;;;;;;4964614;28;20586;-77
2020/12/11 09:41:36;;;;;;;14.17;10.50;;;2.60;99.90;;;;;;4952699;29;20227;-76
2020/12/11 09:54:33;;;;;;;16.05;11.30;;;2.40;99.90;;;;;;4936871;28;20678;-76
2020/12/11 09:56:58;;;;;;;17.77;12.85;;;2.40;99.90;;;;;;4951494;29;20226;-76
2020/12/11 10:04:21;;;;;;;17.23;12.98;;;2.30;99.90;;;;;;4953075;28;20638;-76
2020/12/11 10:06:46;;;;;;;22.90;14.50;;;2.30;99.90;;;;;;4951257;29;20215;-77
2020/12/11 10:09:12;;;;;;;20.10;14.00;;;2.30;99.90;;;;;;4954744;28;20930;-76
2020/12/11 10:11:38;;;;;;;17.80;13.70;;;2.30;99.90;;;;;;4952424;28;20486;-77
2020/12/11 10:16:35;;;;;;;19.50;13.30;;;2.30;99.90;;;;;;4948623;28;20196;-76
2020/12/11 10:19:01;;;;;;;19.23;14.97;;;2.30;99.90;;;;;;4952251;28;20255;-77
2020/12/11 10:21:28;;;;;;;18.97;13.00;;;2.30;99.90;;;;;;4952623;28;20556;-76
2020/12/11 10:23:53;;;;;;;21.52;15.15;;;2.30;99.90;;;;;;4951783;29;20823;-76
2020/12/11 10:26:19;;;;;;;19.47;13.47;;;2.30;99.90;;;;;;4940366;28;20205;-76
2020/12/11 10:28:44;;;;;;;18.50;12.07;;;2.40;99.90;;;;;;4952414;29;20187;-76
2020/12/11 10:31:10;;;;;;;17.77;12.90;;;2.40;99.90;;;;;;4952195;28;20298;-76
2020/12/11 10:33:36;;;;;;;18.90;13.90;;;2.50;99.90;;;;;;4952914;29;20182;-76
2020/12/11 10:36:01;;;;;;;19.53;14.07;;;2.60;99.90;;;;;;4922343;28;20683;-77
2020/12/11 10:38:27;;;;;;;19.13;13.43;;;2.60;99.90;;;;;;4965906;28;20182;-76
2020/12/11 10:40:53;;;;;;;16.93;14.00;;;2.70;99.90;;;;;;4952368;28;20206;-76
2020/12/11 10:43:18;;;;;;;17.73;12.70;;;2.70;99.90;;;;;;4951753;28;20211;-76
2020/12/11 10:45:44;;;;;;;17.27;12.90;;;2.70;99.90;;;;;;4951756;29;20179;-76
2020/12/11 10:48:09;;;;;;;18.33;13.10;;;2.70;99.90;;;;;;4951994;28;20208;-76
2020/12/11 10:50:35;;;;;;;18.83;13.20;;;2.70;99.90;;;;;;4952331;28;20177;-76
2020/12/11 10:53:01;;;;;;;17.53;13.40;;;2.60;99.90;;;;;;4966840;28;20709;-76
2020/12/11 10:55:27;;;;;;;17.93;11.73;;;2.60;99.90;;;;;;4951647;29;20176;-76
2020/12/11 10:57:53;;;;;;;16.90;11.00;;;2.70;99.90;;;;;;4947614;29;20603;-76
2020/12/11 11:00:19;;;;;;;14.80;11.38;;;2.70;99.90;;;;;;4966388;28;20516;-77
2020/12/11 11:02:45;;;;;;;14.52;11.35;;;2.80;99.90;;;;;;4951260;28;20740;-77
2020/12/11 11:05:11;;;;;;;12.63;9.90;;;2.80;99.90;;;;;;4952292;28;20187;-76
2020/12/11 11:07:37;;;;;;;14.63;10.82;;;2.90;99.90;;;;;;4943877;29;20219;-76
2020/12/11 11:12:41;;;;;;;15.23;11.88;;;3.00;99.90;;;;;;4954917;28;20212;-76
2020/12/11 11:28:15;;;;;;;11.18;8.05;;;3.40;99.90;;;;;;4943932;28;20211;-76
2020/12/11 11:30:44;;;;;;;11.20;8.50;;;3.40;99.90;;;;;;4957932;28;20214;-76
2020/12/11 11:33:10;;;;;;;7.05;5.22;;;3.50;99.90;;;;;;4945176;28;20614;-76
2020/12/11 11:35:35;;;;;;;6.67;4.87;;;3.60;99.90;;;;;;4953339;28;20180;-76
2020/12/11 11:38:05;;;;;;;6.23;4.87;;;3.70;99.90;;;;;;4964353;28;20212;-76
2020/12/11 11:40:31;;;;;;;4.50;4.10;;;3.70;99.90;;;;;;4955336;29;20172;-76
2020/12/11 11:42:57;;;;;;;5.30;4.13;;;3.70;99.90;;;;;;4954598;28;20222;-76
2020/12/11 11:45:25;;;;;;;5.00;3.90;;;3.70;99.90;;;;;;4966233;28;20883;-76
2020/12/11 11:47:56;;;;;;;4.00;3.60;;;3.70;99.90;;;;;;4948421;29;20243;-77
2020/12/11 11:50:48;;;;;;;7.38;4.65;;;3.70;99.90;;;;;;4954340;28;20318;-77
2020/12/11 11:53:14;;;;;;;4.53;4.10;;;3.70;99.90;;;;;;4954638;28;20220;-76
2020/12/11 11:55:41;;;;;;;4.85;3.15;;;3.80;99.90;;;;;;4954035;28;20741;-76
2020/12/11 11:58:08;;;;;;;2.90;2.60;;;3.80;99.90;;;;;;4953719;28;20216;-76
2020/12/11 12:00:34;;;;;;;2.88;2.58;;;3.80;99.90;;;;;;4954344;29;20186;-76
2020/12/11 12:02:59;;;;;;;2.77;2.53;;;3.90;99.90;;;;;;4954192;28;20212;-77
2020/12/11 12:05:25;;;;;;;3.50;2.80;;;4.00;99.90;;;;;;4954303;29;20643;-76
2020/12/11 12:07:51;;;;;;;3.57;2.33;;;4.00;99.90;;;;;;4940587;28;20701;-77
2020/12/11 12:10:17;;;;;;;3.60;2.50;;;4.00;99.90;;;;;;4953877;28;20179;-78
2020/12/11 12:12:43;;;;;;;2.93;2.23;;;4.00;99.90;;;;;;4953635;28;20216;-76
2020/12/11 12:15:13;;;;;;;2.53;2.33;;;4.10;99.90;;;;;;4953219;28;20187;-78
2020/12/11 12:17:44;;;;;;;2.85;2.60;;;4.10;99.90;;;;;;4956637;28;20208;-77
2020/12/11 12:20:16;;;;;;;3.97;3.53;;;4.00;99.90;;;;;;4953935;29;20176;-77
2020/12/11 12:30:39;;;;;;;2.92;2.65;;;3.90;99.90;;;;;;4954621;28;20196;-76
2020/12/11 12:43:42;;;;;;;3.25;2.70;;;3.90;99.90;;;;;;4953984;29;20244;-76
2020/12/11 12:46:08;;;;;;;2.50;2.30;;;3.90;99.90;;;;;;4948667;28;20195;-76
2020/12/11 12:48:35;;;;;;;3.07;2.77;;;3.90;99.90;;;;;;4945615;29;20284;-76
2020/12/11 12:51:00;;;;;;;2.80;2.60;;;3.80;99.90;;;;;;4953625;28;20502;-76
2020/12/11 12:53:28;;;;;;;3.17;2.87;;;3.80;99.90;;;;;;4953926;28;20643;-76
2020/12/11 12:58:43;;;;;;;2.63;2.15;;;3.80;99.90;;;;;;4953284;28;20214;-77
2020/12/11 13:01:24;;;;;;;3.85;2.80;;;3.80;99.90;;;;;;4952578;28;20199;-77
2020/12/11 13:06:31;;;;;;;4.40;3.55;;;3.70;99.90;;;;;;4951617;28;20698;-76
2020/12/11 13:08:56;;;;;;;4.70;4.20;;;3.60;99.90;;;;;;4953308;28;20179;-76
2020/12/11 13:11:22;;;;;;;4.10;3.60;;;3.70;99.90;;;;;;4952321;28;20219;-77
2020/12/11 13:13:47;;;;;;;5.03;3.83;;;3.70;99.90;;;;;;4952510;29;20194;-77
2020/12/11 13:16:13;;;;;;;4.13;3.70;;;3.60;99.90;;;;;;4949159;28;20181;-76
2020/12/11 13:18:39;;;;;;;4.30;3.90;;;3.60;99.90;;;;;;4952339;29;20186;-76
2020/12/11 13:21:08;;;;;;;4.40;4.00;;;3.60;99.90;;;;;;4952322;28;20530;-76
2020/12/11 13:28:44;;;;;;;5.00;4.27;;;3.60;99.90;;;;;;4952579;28;20188;-76
2020/12/11 13:31:16;;;;;;;6.33;4.77;;;3.60;99.90;;;;;;4952614;28;20196;-76
2020/12/11 13:33:42;;;;;;;5.97;4.60;;;3.60;99.90;;;;;;4967644;28;20631;-76
2020/12/11 13:36:08;;;;;;;5.30;4.80;;;3.60;99.90;;;;;;4949775;29;20204;-76
2020/12/11 13:38:34;;;;;;;6.28;4.60;;;3.60;99.90;;;;;;4947719;29;20663;-77
2020/12/11 13:40:59;;;;;;;7.83;4.60;;;3.50;99.90;;;;;;4953588;28;20231;-76
2020/12/11 13:43:25;;;;;;;5.77;4.80;;;3.70;99.90;;;;;;4953022;28;20509;-76
2020/12/11 13:45:51;;;;;;;6.13;4.83;;;4.00;99.90;;;;;;4943187;28;20551;-76
2020/12/11 13:48:17;;;;;;;5.07;4.53;;;4.10;99.90;;;;;;4967871;28;20204;-76